createdAt,value
2018-08-28T00:01:08.181Z,101068.66
2018-08-28T00:03:36.335Z,101066.30
2018-08-28T00:06:04.565Z,101075.03
2018-08-28T00:08:32.778Z,101075.59
2018-08-28T00:11:00.929Z,101080.19
2018-08-28T00:13:29.149Z,101080.95
2018-08-28T00:15:57.342Z,101075.11
2018-08-28T00:18:25.487Z,101081.23
2018-08-28T00:20:53.693Z,101085.62
2018-08-28T00:23:21.891Z,101086.09
2018-08-28T00:25:50.186Z,101086.64
2018-08-28T00:28:18.336Z,101091.63
2018-08-28T00:30:46.538Z,101099.14
2018-08-28T00:33:14.688Z,101101.30
2018-08-28T00:35:42.801Z,101098.67
2018-08-28T00:38:11.008Z,101100.55
2018-08-28T00:40:39.149Z,101095.20
2018-08-28T00:43:08.268Z,101096.23
2018-08-28T00:45:36.417Z,101099.61
2018-08-28T00:48:04.536Z,101102.41
2018-08-28T00:50:32.712Z,101108.32
2018-08-28T00:53:00.862Z,101109.83
2018-08-28T00:55:29.002Z,101110.45
2018-08-28T00:57:57.124Z,101120.31
2018-08-28T01:00:25.243Z,101114.95
2018-08-28T01:02:53.385Z,101114.30
2018-08-28T01:05:23.783Z,101117.58
2018-08-28T01:07:52.485Z,101121.81
2018-08-28T01:10:21.016Z,101125.85
2018-08-28T01:12:49.138Z,101129.14
2018-08-28T01:15:17.244Z,101132.89
2018-08-28T01:17:45.405Z,101128.02
2018-08-28T01:20:13.527Z,101129.42
2018-08-28T01:22:41.630Z,101126.38
2018-08-28T01:25:09.714Z,101134.27
2018-08-28T01:27:37.860Z,101144.45
2018-08-28T01:30:06.017Z,101137.12
2018-08-28T01:32:34.160Z,101146.80
2018-08-28T01:35:02.352Z,101146.95
2018-08-28T01:37:30.470Z,101149.86
2018-08-28T01:39:58.590Z,101151.18
2018-08-28T01:42:26.716Z,101154.31
2018-08-28T01:44:54.811Z,101154.12
2018-08-28T01:47:23.139Z,101156.84
2018-08-28T01:49:51.648Z,101149.80
2018-08-28T01:52:20.218Z,101158.63
2018-08-28T01:54:48.391Z,101157.12
2018-08-28T01:57:16.525Z,101160.70
2018-08-28T01:59:44.741Z,101158.26
2018-08-28T02:02:12.906Z,101160.51
2018-08-28T02:04:41.023Z,101165.11
2018-08-28T02:07:09.151Z,101168.02
2018-08-28T02:09:37.262Z,101158.09
2018-08-28T02:12:05.349Z,101161.45
2018-08-28T02:14:33.480Z,101170.02
2018-08-28T02:17:01.617Z,101169.73
2018-08-28T02:19:29.725Z,101170.68
2018-08-28T02:21:57.852Z,101171.04
2018-08-28T02:24:26.091Z,101176.78
2018-08-28T02:26:54.214Z,101181.36
2018-08-28T02:29:22.300Z,101172.16
2018-08-28T02:31:50.395Z,101176.10
2018-08-28T02:34:18.517Z,101177.72
2018-08-28T02:36:46.628Z,101177.70
2018-08-28T02:39:14.743Z,101180.05
2018-08-28T02:41:42.854Z,101177.91
2018-08-28T02:44:11.032Z,101178.64
2018-08-28T02:46:39.245Z,101177.50
2018-08-28T02:49:07.723Z,101178.53
2018-08-28T02:51:37.264Z,101180.31
2018-08-28T02:54:05.354Z,101186.50
2018-08-28T02:56:33.456Z,101188.19
2018-08-28T02:59:01.592Z,101193.71
2018-08-28T03:01:29.720Z,101188.47
2018-08-28T03:03:57.885Z,101194.66
2018-08-28T03:06:27.551Z,101196.34
2018-08-28T03:08:56.655Z,101200.95
2018-08-28T03:11:24.795Z,101204.05
2018-08-28T03:13:52.910Z,101206.87
2018-08-28T03:16:21.053Z,101210.00
2018-08-28T03:18:49.260Z,101211.02
2018-08-28T03:21:17.358Z,101202.48
2018-08-28T03:23:45.521Z,101212.44
2018-08-28T03:26:13.651Z,101214.88
2018-08-28T03:28:41.822Z,101218.16
2018-08-28T03:31:09.972Z,101229.34
2018-08-28T03:33:38.152Z,101229.53
2018-08-28T03:36:06.275Z,101223.63
2018-08-28T03:38:34.441Z,101231.59
2018-08-28T03:41:02.512Z,101234.05
2018-08-28T03:43:30.672Z,101233.20
2018-08-28T03:45:58.786Z,101240.53
2018-08-28T03:48:26.917Z,101248.87
2018-08-28T03:50:55.008Z,101243.81
2018-08-28T03:53:23.076Z,101246.45
2018-08-28T03:55:51.224Z,101245.98
2018-08-28T03:58:19.369Z,101253.28
2018-08-28T04:00:47.699Z,101260.61
2018-08-28T04:03:15.795Z,101262.50
2018-08-28T04:05:43.978Z,101261.83
2018-08-28T04:08:12.194Z,101263.06
2018-08-28T04:10:40.292Z,101261.54
2018-08-28T04:13:08.435Z,101266.80
2018-08-28T04:15:36.608Z,101268.02
2018-08-28T04:18:04.760Z,101267.56
2018-08-28T04:20:32.911Z,101274.61
2018-08-28T04:23:01.011Z,101273.09
2018-08-28T04:25:29.100Z,101272.13
2018-08-28T04:27:57.245Z,101269.67
2018-08-28T04:30:25.416Z,101275.02
2018-08-28T04:32:53.495Z,101272.27
2018-08-28T04:35:21.664Z,101281.17
2018-08-28T04:37:49.780Z,101285.67
2018-08-28T04:40:18.048Z,101282.02
2018-08-28T04:42:46.271Z,101284.36
2018-08-28T04:45:14.405Z,101286.34
2018-08-28T04:47:42.567Z,101289.14
2018-08-28T04:50:10.701Z,101295.03
2018-08-28T04:52:38.797Z,101291.39
2018-08-28T04:55:06.958Z,101294.95
2018-08-28T04:57:35.285Z,101291.47
2018-08-28T05:00:04.768Z,101295.41
2018-08-28T05:02:37.318Z,101292.78
2018-08-28T05:05:07.795Z,101300.12
2018-08-28T05:07:35.959Z,101302.73
2018-08-28T05:10:04.512Z,101307.70
2018-08-28T05:12:32.625Z,101313.94
2018-08-28T05:15:00.760Z,101313.67
2018-08-28T05:17:28.907Z,101323.92
2018-08-28T05:19:57.063Z,101324.57
2018-08-28T05:22:25.710Z,101327.91
2018-08-28T05:24:53.977Z,101329.89
2018-08-28T05:27:22.449Z,101331.03
2018-08-28T05:29:50.581Z,101333.13
2018-08-28T05:32:18.736Z,101337.74
2018-08-28T05:34:46.907Z,101334.67
2018-08-28T05:37:15.048Z,101338.98
2018-08-28T05:39:43.189Z,101344.73
2018-08-28T05:42:11.321Z,101347.55
2018-08-28T05:44:39.416Z,101347.83
2018-08-28T05:47:08.718Z,101349.81
2018-08-28T05:49:36.903Z,101354.05
2018-08-28T05:52:05.047Z,101362.05
2018-08-28T05:54:33.184Z,101359.89
2018-08-28T05:57:01.328Z,101359.80
2018-08-28T05:59:29.514Z,101368.16
2018-08-28T06:01:57.602Z,101364.42
2018-08-28T06:04:25.713Z,101361.23
2018-08-28T06:06:53.841Z,101355.01
2018-08-28T06:09:21.951Z,101355.41
2018-08-28T06:11:50.113Z,101357.07
2018-08-28T06:14:18.253Z,101357.13
2018-08-28T06:16:46.387Z,101359.89
2018-08-28T06:19:14.672Z,101362.21
2018-08-28T06:21:42.829Z,101361.03
2018-08-28T06:24:10.978Z,101364.60
2018-08-28T06:26:39.145Z,101364.08
2018-08-28T06:29:08.193Z,101371.73
2018-08-28T06:31:36.304Z,101372.25
2018-08-28T06:34:04.556Z,101371.40
2018-08-28T06:36:32.556Z,101377.45
2018-08-28T06:39:00.695Z,101379.44
2018-08-28T06:41:29.015Z,101383.73
2018-08-28T06:43:57.145Z,101383.84
2018-08-28T06:46:25.243Z,101387.30
2018-08-28T06:48:53.351Z,101384.83
2018-08-28T06:51:21.432Z,101386.27
2018-08-28T06:53:49.588Z,101386.55
2018-08-28T06:56:17.665Z,101388.28
2018-08-28T06:58:45.776Z,101392.92
2018-08-28T07:01:13.920Z,101392.73
2018-08-28T07:03:42.195Z,101401.70
2018-08-28T07:06:10.257Z,101403.68
2018-08-28T07:08:38.404Z,101398.45
2018-08-28T07:11:06.587Z,101405.97
2018-08-28T07:13:34.742Z,101408.61
2018-08-28T07:16:02.861Z,101403.69
2018-08-28T07:18:30.969Z,101410.66
2018-08-28T07:20:59.213Z,101410.88
2018-08-28T07:23:27.916Z,101421.52
2018-08-28T07:25:56.059Z,101417.97
2018-08-28T07:28:24.244Z,101420.03
2018-08-28T07:30:52.377Z,101419.24
2018-08-28T07:33:20.478Z,101418.88
2018-08-28T07:35:48.584Z,101418.16
2018-08-28T07:38:16.678Z,101421.58
2018-08-28T07:40:44.802Z,101425.77
2018-08-28T07:43:12.930Z,101424.86
2018-08-28T07:45:41.037Z,101423.80
2018-08-28T07:48:09.222Z,101427.33
2018-08-28T07:50:37.320Z,101429.41
2018-08-28T07:53:05.608Z,101436.29
2018-08-28T07:55:33.749Z,101431.96
2018-08-28T07:58:01.890Z,101430.31
2018-08-28T08:00:30.007Z,101433.66
2018-08-28T08:02:58.157Z,101432.00
2018-08-28T08:05:26.325Z,101433.21
2018-08-28T08:07:54.504Z,101436.38
2018-08-28T08:10:22.692Z,101437.15
2018-08-28T08:12:50.781Z,101448.31
2018-08-28T08:15:18.976Z,101438.84
2018-08-28T08:17:47.157Z,101450.45
2018-08-28T08:20:15.253Z,101452.58
2018-08-28T08:22:43.918Z,101452.69
2018-08-28T08:25:12.045Z,101454.27
2018-08-28T08:27:40.189Z,101456.87
2018-08-28T08:30:08.333Z,101464.33
2018-08-28T08:32:36.532Z,101464.21
2018-08-28T08:35:04.691Z,101468.91
2018-08-28T08:37:32.847Z,101467.00
2018-08-28T08:40:01.102Z,101465.22
2018-08-28T08:42:29.245Z,101470.41
2018-08-28T08:44:57.426Z,101464.80
2018-08-28T08:47:25.545Z,101469.08
2018-08-28T08:49:53.823Z,101469.92
2018-08-28T08:52:21.979Z,101475.67
2018-08-28T08:54:50.195Z,101472.38
2018-08-28T08:57:18.323Z,101473.82
2018-08-28T08:59:46.361Z,101467.97
2018-08-28T09:02:14.512Z,101468.49
2018-08-28T09:04:42.819Z,101464.23
2018-08-28T09:07:10.944Z,101467.80
2018-08-28T09:09:39.225Z,101461.45
2018-08-28T09:12:07.335Z,101459.92
2018-08-28T09:14:35.920Z,101464.24
2018-08-28T09:17:04.016Z,101465.11
2018-08-28T09:19:32.121Z,101464.14
2018-08-28T09:22:00.220Z,101466.17
2018-08-28T09:24:28.397Z,101464.34
2018-08-28T09:26:56.519Z,101469.07
2018-08-28T09:29:24.680Z,101469.91
2018-08-28T09:31:52.820Z,101466.78
2018-08-28T09:34:20.925Z,101466.67
2018-08-28T09:36:49.009Z,101467.36
2018-08-28T09:39:17.165Z,101469.41
2018-08-28T09:41:45.260Z,101476.89
2018-08-28T09:44:13.402Z,101473.98
2018-08-28T09:46:41.597Z,101476.94
2018-08-28T09:49:09.723Z,101472.67
2018-08-28T09:51:37.836Z,101470.66
2018-08-28T09:54:05.979Z,101481.70
2018-08-28T09:56:34.210Z,101476.16
2018-08-28T09:59:02.248Z,101474.58
2018-08-28T10:01:35.869Z,101480.20
2018-08-28T10:04:03.999Z,101483.88
2018-08-28T10:06:32.277Z,101483.07
2018-08-28T10:09:00.383Z,101482.71
2018-08-28T10:11:28.616Z,101477.44
2018-08-28T10:13:56.942Z,101478.83
2018-08-28T10:16:25.065Z,101473.38
2018-08-28T10:18:53.671Z,101477.25
2018-08-28T10:21:21.813Z,101477.63
2018-08-28T10:23:49.936Z,101475.11
2018-08-28T10:26:18.051Z,101475.83
2018-08-28T10:28:46.136Z,101478.72
2018-08-28T10:31:14.256Z,101475.11
2018-08-28T10:33:42.367Z,101484.97
2018-08-28T10:36:10.591Z,101489.58
2018-08-28T10:38:38.700Z,101495.23
2018-08-28T10:41:06.876Z,101497.06
2018-08-28T10:43:35.032Z,101504.17
2018-08-28T10:46:03.911Z,101500.59
2018-08-28T10:48:31.982Z,101500.42
2018-08-28T10:51:00.095Z,101498.67
2018-08-28T10:53:28.759Z,101500.48
2018-08-28T10:55:56.993Z,101504.45
2018-08-28T10:58:25.076Z,101507.91
2018-08-28T11:00:53.198Z,101499.92
2018-08-28T11:03:21.363Z,101510.01
2018-08-28T11:05:49.511Z,101509.66
2018-08-28T11:08:17.637Z,101514.87
2018-08-28T11:10:45.774Z,101516.20
2018-08-28T11:13:14.548Z,101517.66
2018-08-28T11:15:42.706Z,101514.16
2018-08-28T11:18:10.836Z,101528.27
2018-08-28T11:20:38.995Z,101522.12
2018-08-28T11:28:07.140Z,101527.81
2018-08-28T11:30:35.271Z,101525.64
2018-08-28T11:33:03.446Z,101525.73
2018-08-28T11:35:31.577Z,101525.52
2018-08-28T11:37:59.717Z,101527.19
2018-08-28T11:40:27.831Z,101523.93
2018-08-28T11:42:55.928Z,101528.39
2018-08-28T11:45:24.092Z,101527.30
2018-08-28T11:47:52.199Z,101534.18
2018-08-28T11:50:20.321Z,101531.55
2018-08-28T11:52:48.372Z,101535.14
2018-08-28T11:55:16.472Z,101536.13
2018-08-28T11:57:44.607Z,101533.70
2018-08-28T12:00:13.337Z,101535.64
2018-08-28T12:02:41.406Z,101536.02
2018-08-28T12:05:09.568Z,101539.03
2018-08-28T12:07:37.611Z,101536.34
2018-08-28T12:10:05.936Z,101540.09
2018-08-28T12:12:34.058Z,101536.09
2018-08-28T12:15:02.189Z,101533.81
2018-08-28T12:17:30.295Z,101542.84
2018-08-28T12:19:58.414Z,101545.16
2018-08-28T12:22:26.573Z,101545.63
2018-08-28T12:24:54.648Z,101543.84
2018-08-28T12:27:22.753Z,101543.48
2018-08-28T12:29:51.000Z,101544.78
2018-08-28T12:32:19.126Z,101541.80
2018-08-28T12:34:47.320Z,101544.44
2018-08-28T12:37:15.589Z,101549.77
2018-08-28T12:39:43.787Z,101548.90
2018-08-28T12:42:11.913Z,101554.81
2018-08-28T12:44:40.037Z,101545.91
2018-08-28T12:47:08.219Z,101549.41
2018-08-28T12:49:36.357Z,101547.23
2018-08-28T12:52:04.527Z,101539.48
2018-08-28T12:54:32.674Z,101538.28
2018-08-28T12:57:00.804Z,101542.23
2018-08-28T12:59:28.930Z,101546.45
2018-08-28T13:01:57.041Z,101548.27
2018-08-28T13:04:25.996Z,101546.69
2018-08-28T13:06:54.133Z,101546.09
2018-08-28T13:09:22.213Z,101549.11
2018-08-28T13:11:50.299Z,101553.24
2018-08-28T13:14:18.675Z,101545.77
2018-08-28T13:16:46.812Z,101551.80
2018-08-28T13:19:14.943Z,101548.30
2018-08-28T13:21:43.205Z,101544.65
2018-08-28T13:24:11.308Z,101547.19
2018-08-28T13:26:39.385Z,101552.91
2018-08-28T13:29:07.500Z,101556.16
2018-08-28T13:31:35.652Z,101550.73
2018-08-28T13:34:03.736Z,101549.89
2018-08-28T13:36:31.903Z,101553.13
2018-08-28T13:39:00.008Z,101558.55
2018-08-28T13:41:28.107Z,101558.31
2018-08-28T13:43:56.254Z,101552.00
2018-08-28T13:46:24.775Z,101553.61
2018-08-28T13:48:53.009Z,101557.34
2018-08-28T13:51:27.819Z,101552.84
2018-08-28T13:53:56.034Z,101557.22
2018-08-28T13:56:24.174Z,101557.47
2018-08-28T13:58:52.294Z,101552.28
2018-08-28T14:01:20.375Z,101557.67
2018-08-28T14:03:48.468Z,101555.05
2018-08-28T14:06:16.601Z,101553.23
2018-08-28T14:08:44.768Z,101559.03
2018-08-28T14:11:12.868Z,101559.16
2018-08-28T14:13:41.078Z,101560.50
2018-08-28T14:16:09.195Z,101562.89
2018-08-28T14:18:37.297Z,101561.45
2018-08-28T14:21:05.430Z,101566.24
2018-08-28T14:23:33.563Z,101559.24
2018-08-28T14:26:01.685Z,101560.53
2018-08-28T14:28:29.918Z,101562.70
2018-08-28T14:30:58.069Z,101563.29
2018-08-28T14:33:26.195Z,101554.26
2018-08-28T14:35:54.320Z,101557.98
2018-08-28T14:38:22.464Z,101560.70
2018-08-28T14:40:50.590Z,101562.27
2018-08-28T14:43:18.794Z,101555.37
2018-08-28T14:45:47.520Z,101555.99
2018-08-28T14:48:15.756Z,101550.78
2018-08-28T14:50:43.956Z,101549.72
2018-08-28T14:53:12.749Z,101549.95
2018-08-28T14:55:40.854Z,101543.74
2018-08-28T14:58:09.940Z,101545.87
2018-08-28T15:00:38.106Z,101545.92
2018-08-28T15:03:06.329Z,101543.62
2018-08-28T15:05:34.698Z,101543.90
2018-08-28T15:08:03.275Z,101537.20
2018-08-28T15:10:31.460Z,101534.42
2018-08-28T15:12:59.557Z,101529.00
2018-08-28T15:15:27.809Z,101531.31
2018-08-28T15:17:55.924Z,101525.78
2018-08-28T15:20:24.095Z,101526.48
2018-08-28T15:22:52.212Z,101524.53
2018-08-28T15:25:20.399Z,101524.62
2018-08-28T15:27:48.530Z,101528.71
2018-08-28T15:30:16.655Z,101520.38
2018-08-28T15:32:44.862Z,101523.05
2018-08-28T15:35:12.988Z,101521.11
2018-08-28T15:37:41.100Z,101520.97
2018-08-28T15:40:09.224Z,101526.02
2018-08-28T15:42:37.392Z,101523.58
2018-08-28T15:45:05.616Z,101520.47
2018-08-28T15:47:33.730Z,101524.66
2018-08-28T15:50:01.894Z,101519.73
2018-08-28T15:52:30.071Z,101519.47
2018-08-28T15:54:58.267Z,101521.64
2018-08-28T15:57:26.392Z,101522.36
2018-08-28T15:59:54.561Z,101527.63
2018-08-28T16:02:22.808Z,101522.86
2018-08-28T16:04:50.992Z,101524.77
2018-08-28T16:07:19.128Z,101517.81
2018-08-28T16:09:47.272Z,101515.16
2018-08-28T16:12:15.403Z,101515.50
2018-08-28T16:14:43.531Z,101516.02
2018-08-28T16:17:11.675Z,101515.05
2018-08-28T16:19:39.839Z,101514.58
2018-08-28T16:22:08.011Z,101518.45
2018-08-28T16:24:36.148Z,101519.55
2018-08-28T16:27:04.290Z,101520.38
2018-08-28T16:29:32.492Z,101519.91
2018-08-28T16:32:00.621Z,101524.70
2018-08-28T16:34:28.800Z,101520.48
2018-08-28T16:36:56.953Z,101525.20
2018-08-28T16:39:25.086Z,101521.58
2018-08-28T16:41:53.222Z,101518.67
2018-08-28T16:44:21.334Z,101519.64
2018-08-28T16:47:52.638Z,101524.42
2018-08-28T16:50:20.851Z,101521.41
2018-08-28T16:52:48.877Z,101521.10
2018-08-28T16:55:17.016Z,101525.20
2018-08-28T16:57:45.122Z,101515.80
2018-08-28T17:00:13.235Z,101518.70
2018-08-28T17:02:41.356Z,101520.39
2018-08-28T17:05:09.490Z,101516.53
2018-08-28T17:07:37.622Z,101514.48
2018-08-28T17:10:05.824Z,101514.36
2018-08-28T17:12:33.941Z,101508.33
2018-08-28T17:15:02.121Z,101509.05
2018-08-28T17:17:30.219Z,101514.23
2018-08-28T17:19:58.310Z,101514.11
2018-08-28T17:22:26.467Z,101513.63
2018-08-28T17:24:54.643Z,101512.91
2018-08-28T17:27:22.874Z,101511.26
2018-08-28T17:29:51.011Z,101511.26
2018-08-28T17:32:19.153Z,101516.69
2018-08-28T17:34:47.341Z,101515.97
2018-08-28T17:37:15.535Z,101519.83
2018-08-28T17:39:43.687Z,101521.39
2018-08-28T17:42:11.817Z,101517.05
2018-08-28T17:44:40.540Z,101518.50
2018-08-28T17:47:08.680Z,101518.62
2018-08-28T17:49:36.809Z,101518.37
2018-08-28T17:52:04.921Z,101525.75
2018-08-28T17:54:33.040Z,101524.53
2018-08-28T17:57:01.200Z,101537.92
2018-08-28T17:59:29.286Z,101530.69
2018-08-28T18:01:57.425Z,101533.09
2018-08-28T18:04:25.614Z,101538.28
2018-08-28T18:06:53.741Z,101537.66
2018-08-28T18:09:21.868Z,101539.22
2018-08-28T18:11:50.038Z,101541.74
2018-08-28T18:14:18.211Z,101549.70
2018-08-28T18:16:46.299Z,101556.33
2018-08-28T18:19:14.396Z,101551.63
2018-08-28T18:21:42.517Z,101555.47
2018-08-28T18:24:10.640Z,101556.94
2018-08-28T18:26:38.811Z,101556.59
2018-08-28T18:29:13.782Z,101563.08
2018-08-28T18:31:41.893Z,101556.41
2018-08-28T18:34:10.026Z,101561.48
2018-08-28T18:36:38.142Z,101563.52
2018-08-28T18:39:07.356Z,101564.23
2018-08-28T18:41:35.578Z,101572.16
2018-08-28T18:44:03.586Z,101569.88
2018-08-28T18:46:31.799Z,101566.86
2018-08-28T18:48:59.889Z,101566.74
2018-08-28T18:51:28.067Z,101569.84
2018-08-28T18:53:56.176Z,101564.43
2018-08-28T18:56:24.255Z,101562.91
2018-08-28T18:58:52.391Z,101561.81
2018-08-28T19:01:20.529Z,101559.16
2018-08-28T19:03:48.640Z,101553.00
2018-08-28T19:06:16.773Z,101560.26
2018-08-28T19:08:44.902Z,101555.19
2018-08-28T19:11:12.971Z,101556.03
2018-08-28T19:13:41.078Z,101557.22
2018-08-28T19:16:09.734Z,101554.82
2018-08-28T19:18:37.980Z,101558.66
2018-08-28T19:21:06.128Z,101558.17
2018-08-28T19:23:34.290Z,101555.67
2018-08-28T19:26:02.607Z,101558.76
2018-08-28T19:28:30.820Z,101557.41
2018-08-28T19:30:59.154Z,101557.25
2018-08-28T19:33:27.611Z,101559.64
2018-08-28T19:35:55.830Z,101561.34
2018-08-28T19:38:23.945Z,101564.50
2018-08-28T19:40:52.064Z,101564.46
2018-08-28T19:43:20.277Z,101564.67
2018-08-28T19:45:48.407Z,101562.98
2018-08-28T19:48:16.564Z,101566.48
2018-08-28T19:50:44.750Z,101563.69
2018-08-28T19:53:12.931Z,101561.19
2018-08-28T19:55:41.170Z,101560.23
2018-08-28T19:58:09.323Z,101559.27
2018-08-28T20:00:37.506Z,101551.88
2018-08-28T20:03:05.667Z,101548.61
2018-08-28T20:05:33.898Z,101543.17
2018-08-28T20:08:02.172Z,101552.44
2018-08-28T20:10:30.326Z,101552.91
2018-08-28T20:12:58.490Z,101549.49
2018-08-28T20:15:26.609Z,101547.28
2018-08-28T20:17:54.863Z,101539.41
2018-08-28T20:20:23.027Z,101551.64
2018-08-28T20:22:51.171Z,101542.48
2018-08-28T20:25:19.301Z,101549.67
2018-08-28T20:27:47.447Z,101552.22
2018-08-28T20:30:15.594Z,101548.13
2018-08-28T20:32:43.779Z,101548.21
2018-08-28T20:35:11.895Z,101548.69
2018-08-28T20:37:40.158Z,101548.90
2018-08-28T20:40:08.353Z,101553.71
2018-08-28T20:42:36.552Z,101550.27
2018-08-28T20:45:04.792Z,101544.08
2018-08-28T20:47:32.939Z,101536.15
2018-08-28T20:50:01.115Z,101534.70
2018-08-28T20:52:29.275Z,101531.84
2018-08-28T20:54:57.452Z,101532.58
2018-08-28T20:57:25.623Z,101530.67
2018-08-28T20:59:53.767Z,101528.20
2018-08-28T21:02:22.018Z,101519.98
2018-08-28T21:04:50.178Z,101530.02
2018-08-28T21:07:18.380Z,101519.41
2018-08-28T21:09:46.629Z,101514.23
2018-08-28T21:12:14.818Z,101511.11
2018-08-28T21:14:42.895Z,101514.70
2018-08-28T21:17:10.960Z,101511.23
2018-08-28T21:19:39.078Z,101509.13
2018-08-28T21:22:07.180Z,101511.06
2018-08-28T21:24:35.294Z,101512.49
2018-08-28T21:27:03.395Z,101508.63
2018-08-28T21:29:31.619Z,101506.36
2018-08-28T21:31:59.674Z,101507.36
2018-08-28T21:34:27.812Z,101498.58
2018-08-28T21:36:55.964Z,101500.15
2018-08-28T21:39:24.115Z,101500.22
2018-08-28T21:41:52.252Z,101492.03
2018-08-28T21:44:20.391Z,101492.77
2018-08-28T21:46:48.549Z,101488.89
2018-08-28T21:49:16.716Z,101485.16
2018-08-28T21:51:44.820Z,101488.05
2018-08-28T21:54:12.909Z,101490.38
2018-08-28T21:56:41.083Z,101486.88
2018-08-28T21:59:09.196Z,101495.88
2018-08-28T22:01:37.297Z,101494.93
2018-08-28T22:04:05.396Z,101495.18
2018-08-28T22:06:38.748Z,101502.39
2018-08-28T22:09:06.835Z,101498.56
2018-08-28T22:11:35.284Z,101493.30
2018-08-28T22:14:03.464Z,101496.94
2018-08-28T22:16:31.592Z,101493.34
2018-08-28T22:18:59.795Z,101497.25
2018-08-28T22:21:27.897Z,101494.09
2018-08-28T22:23:55.994Z,101494.04
2018-08-28T22:26:24.091Z,101487.48
2018-08-28T22:28:52.200Z,101487.58
2018-08-28T22:31:20.302Z,101485.16
2018-08-28T22:33:48.417Z,101493.77
2018-08-28T22:36:16.540Z,101493.02
2018-08-28T22:38:44.678Z,101495.13
2018-08-28T22:41:12.837Z,101497.25
2018-08-28T22:43:42.127Z,101498.01
2018-08-28T22:46:10.285Z,101494.91
2018-08-28T22:48:38.527Z,101490.66
2018-08-28T22:51:06.658Z,101492.20
2018-08-28T22:53:34.761Z,101478.80
2018-08-28T22:56:02.900Z,101487.20
2018-08-28T22:58:31.037Z,101488.59
2018-08-28T23:00:59.151Z,101485.95
2018-08-28T23:03:27.230Z,101487.58
2018-08-28T23:05:55.305Z,101482.53
2018-08-28T23:08:23.460Z,101484.89
2018-08-28T23:10:51.626Z,101487.81
2018-08-28T23:13:19.741Z,101486.27
2018-08-28T23:15:47.831Z,101484.38
2018-08-28T23:18:15.946Z,101488.63
2018-08-28T23:20:44.076Z,101478.77
2018-08-28T23:23:12.204Z,101485.98
2018-08-28T23:25:40.305Z,101485.70
2018-08-28T23:28:08.433Z,101481.56
2018-08-28T23:30:36.597Z,101481.28
2018-08-28T23:33:04.708Z,101476.38
2018-08-28T23:35:32.851Z,101479.02
2018-08-28T23:38:00.974Z,101474.03
2018-08-28T23:40:29.094Z,101482.73
2018-08-28T23:42:58.218Z,101479.49
2018-08-28T23:45:26.318Z,101483.73
2018-08-28T23:47:54.411Z,101483.92
2018-08-28T23:50:22.558Z,101486.66
2018-08-28T23:52:50.739Z,101477.84
2018-08-28T23:55:18.899Z,101475.56
2018-08-28T23:57:47.047Z,101475.66
